Time;durP1;ratioP1;P1;durP2;ratioP2;P2;SDS_P1;SDS_P2;PMS_P1;PMS_P2;Temp;Humidity;BMP_temperature;BMP_pressure;BME280_temperature;BME280_humidity;BME280_pressure;Samples;Min_cycle;Max_cycle;Signal;HPM_P1;HPM_P2
2022/12/05 00:00:28;;;;;;;22.35;8.15;;;;;;;2.81;46.21;95209.94;5042626;28;20247;-68
2022/12/05 00:02:53;;;;;;;17.02;7.70;;;;;;;2.81;45.34;95212.56;5040396;28;20455;-68
2022/12/05 00:05:18;;;;;;;23.55;7.45;;;;;;;2.82;45.56;95208.13;5040774;28;20443;-68
2022/12/05 00:07:44;;;;;;;17.73;7.93;;;;;;;2.85;45.53;95206.03;5041355;28;20089;-68
2022/12/05 00:10:10;;;;;;;11.82;7.30;;;;;;;2.87;45.13;95204.13;5041964;28;20108;-69
2022/12/05 00:12:35;;;;;;;14.60;7.25;;;;;;;2.84;45.62;95204.41;5041603;28;20097;-68
2022/12/05 00:15:01;;;;;;;15.30;7.70;;;;;;;2.86;45.95;95209.50;5040560;28;20105;-68
2022/12/05 00:17:26;;;;;;;12.60;7.68;;;;;;;2.88;45.45;95197.88;5040803;28;20085;-69
2022/12/05 00:19:51;;;;;;;11.90;7.55;;;;;;;2.94;45.33;95203.53;5041525;28;20093;-68
2022/12/05 00:22:17;;;;;;;12.75;8.05;;;;;;;2.98;45.82;95207.56;5037750;28;20168;-68
2022/12/05 00:24:42;;;;;;;13.65;8.25;;;;;;;2.90;44.90;95214.34;5041552;28;20545;-68
2022/12/05 00:27:07;;;;;;;12.35;7.78;;;;;;;2.86;44.76;95205.06;5036370;28;20167;-68
2022/12/05 00:29:33;;;;;;;12.70;8.00;;;;;;;2.87;45.61;95209.38;5040748;28;20112;-68
2022/12/05 00:31:58;;;;;;;12.13;7.40;;;;;;;2.90;44.82;95218.78;5040440;28;20116;-68
2022/12/05 00:34:24;;;;;;;11.45;7.45;;;;;;;2.93;45.94;95218.50;5041054;28;20101;-68
2022/12/05 00:36:49;;;;;;;10.88;7.22;;;;;;;2.96;45.51;95215.56;5039508;28;20115;-68
2022/12/05 00:39:15;;;;;;;12.20;7.68;;;;;;;2.98;45.16;95218.91;5041300;28;20109;-68
2022/12/05 00:41:41;;;;;;;12.27;6.82;;;;;;;2.99;45.64;95217.13;5040174;28;20105;-68
2022/12/05 00:44:06;;;;;;;11.27;7.35;;;;;;;3.00;45.36;95224.84;5040404;28;20092;-68
2022/12/05 00:46:32;;;;;;;10.57;6.82;;;;;;;3.01;45.78;95220.44;5038860;28;20125;-68
2022/12/05 00:48:58;;;;;;;11.23;6.97;;;;;;;3.06;45.31;95215.56;5041449;28;20391;-68
2022/12/05 00:51:29;;;;;;;12.27;6.82;;;;;;;3.10;45.29;95224.84;5039114;28;20210;-68
2022/12/05 00:53:57;;;;;;;11.35;6.88;;;;;;;3.04;44.46;95214.91;5040224;28;20567;-68
2022/12/05 00:56:22;;;;;;;9.93;6.53;;;;;;;3.11;45.15;95215.16;5040629;28;20089;-68
2022/12/05 00:58:49;;;;;;;9.15;6.22;;;;;;;3.13;45.15;95219.28;5039899;28;20461;-68
2022/12/05 01:01:16;;;;;;;9.77;6.47;;;;;;;3.14;45.09;95220.94;5039645;28;20093;-68
2022/12/05 01:03:42;;;;;;;8.68;6.07;;;;;;;3.14;45.40;95220.94;5039551;28;20077;-68
2022/12/05 01:06:07;;;;;;;10.23;5.97;;;;;;;3.09;44.75;95225.00;5038944;28;20104;-67
2022/12/05 01:08:33;;;;;;;9.27;5.85;;;;;;;3.05;45.47;95227.06;5040884;28;20074;-68
2022/12/05 01:10:59;;;;;;;8.55;5.93;;;;;;;3.06;44.64;95230.53;5036903;28;20746;-68
2022/12/05 01:13:25;;;;;;;8.65;5.75;;;;;;;3.09;44.89;95235.53;5040055;28;20550;-68
2022/12/05 01:15:50;;;;;;;8.45;5.53;;;;;;;3.04;44.81;95242.00;5038863;28;20184;-68
2022/12/05 01:18:16;;;;;;;8.85;5.57;;;;;;;3.16;44.67;95242.69;5040473;28;20105;-68
2022/12/05 01:20:42;;;;;;;8.15;5.25;;;;;;;3.20;44.54;95245.06;5039311;28;20100;-68
2022/12/05 01:23:07;;;;;;;8.40;5.50;;;;;;;3.20;45.47;95247.69;5040171;28;20121;-68
2022/12/05 01:25:33;;;;;;;10.75;6.70;;;;;;;3.12;44.89;95249.22;5040162;28;20139;-68
2022/12/05 01:27:58;;;;;;;8.35;5.88;;;;;;;3.10;45.57;95245.06;5040161;28;20459;-67
2022/12/05 01:30:24;;;;;;;8.52;5.38;;;;;;;3.16;45.25;95250.59;5040313;28;20105;-68
2022/12/05 01:32:49;;;;;;;9.60;6.07;;;;;;;3.14;44.59;95247.25;5041002;28;20061;-68
2022/12/05 01:35:14;;;;;;;9.45;5.32;;;;;;;3.19;44.76;95253.94;5037159;28;20590;-68
2022/12/05 01:37:40;;;;;;;8.13;5.45;;;;;;;3.02;43.96;95256.28;5040753;28;20140;-68
2022/12/05 01:40:07;;;;;;;7.65;4.63;;;;;;;2.89;44.44;95257.38;5040268;28;20078;-67
2022/12/05 01:42:32;;;;;;;8.88;5.15;;;;;;;2.84;45.21;95261.41;5040555;28;20106;-68
2022/12/05 01:45:00;;;;;;;8.73;5.40;;;;;;;2.82;45.38;95258.91;5040148;28;20083;-67
2022/12/05 01:47:25;;;;;;;6.95;4.97;;;;;;;2.81;45.08;95261.66;5040033;28;20193;-67
2022/12/05 01:49:50;;;;;;;6.47;4.40;;;;;;;2.86;45.52;95260.28;5037801;28;20113;-68
2022/12/05 01:52:19;;;;;;;7.80;4.85;;;;;;;2.85;44.44;95263.06;5040321;28;20130;-68
2022/12/05 01:54:45;;;;;;;7.70;4.70;;;;;;;2.88;45.19;95262.78;5036998;28;20159;-68
2022/12/05 01:57:10;;;;;;;7.80;4.93;;;;;;;2.84;45.56;95264.03;5025392;28;20358;-67
2022/12/05 01:59:43;;;;;;;5.68;3.97;;;;;;;2.78;45.10;95261.00;5026779;28;20077;-68
2022/12/05 02:02:08;;;;;;;6.70;4.25;;;;;;;2.86;45.75;95276.06;5035491;28;20128;-69
2022/12/05 02:04:36;;;;;;;6.97;4.50;;;;;;;2.84;45.27;95267.50;5037369;28;20434;-69
2022/12/05 02:07:01;;;;;;;6.40;4.50;;;;;;;2.88;44.74;95268.88;5037732;28;20421;-70
2022/12/05 02:09:27;;;;;;;7.40;4.72;;;;;;;2.88;44.56;95271.50;5040340;28;20275;-69
2022/12/05 02:11:54;;;;;;;6.82;4.65;;;;;;;2.90;45.54;95271.38;5038533;28;20077;-69
2022/12/05 02:14:29;;;;;;;6.60;4.38;;;;;;;2.86;44.87;95270.81;5021112;28;20757;-70
2022/12/05 02:17:16;;;;;;;6.22;4.35;;;;;;;2.85;45.21;95270.94;5039059;28;20566;-68
2022/12/05 02:20:19;;;;;;;6.78;4.45;;;;;;;2.98;44.43;95268.03;5010320;28;20212;-69
2022/12/05 02:23:06;;;;;;;7.53;4.82;;;;;;;2.77;44.35;95271.66;5005662;28;20129;-68
2022/12/05 02:25:50;;;;;;;6.97;4.63;;;;;;;2.32;45.67;95272.97;5008051;28;20428;-70
2022/12/05 02:28:19;;;;;;;6.78;4.22;;;;;;;2.44;45.63;95279.75;5007530;28;20078;-69
2022/12/05 02:30:49;;;;;;;6.28;4.03;;;;;;;2.70;45.40;95268.75;5012573;28;20442;-70
2022/12/05 02:33:23;;;;;;;50.85;5.85;;;;;;;2.52;44.92;95271.22;5009511;28;20167;-69
2022/12/05 02:35:51;;;;;;;6.47;4.32;;;;;;;2.31;46.34;95276.56;5014712;28;20125;-69
2022/12/05 02:38:20;;;;;;;8.87;4.87;;;;;;;2.48;46.01;95282.94;5017319;28;20526;-70
2022/12/05 02:41:03;;;;;;;6.72;4.25;;;;;;;2.44;45.76;95269.25;5010918;28;20101;-70
2022/12/05 02:43:29;;;;;;;5.18;3.80;;;;;;;2.56;45.91;95272.59;5014166;28;20110;-69
2022/12/05 02:45:57;;;;;;;6.35;4.20;;;;;;;2.72;45.56;95269.41;5014787;28;20109;-69
2022/12/05 02:48:22;;;;;;;6.03;4.15;;;;;;;2.81;45.51;95272.19;4995790;28;20078;-69
2022/12/05 02:50:48;;;;;;;5.68;3.75;;;;;;;2.86;45.26;95270.00;5025031;28;20459;-68
2022/12/05 02:53:13;;;;;;;5.65;4.05;;;;;;;2.89;45.37;95267.06;5014705;28;20078;-70
2022/12/05 02:55:39;;;;;;;5.32;3.97;;;;;;;2.82;45.28;95263.34;5016824;28;20074;-70
2022/12/05 02:58:08;;;;;;;5.50;4.07;;;;;;;2.84;44.51;95266.66;5011145;28;20293;-71
2022/12/05 03:00:34;;;;;;;4.70;3.63;;;;;;;2.93;44.87;95265.00;5012903;28;20086;-69
2022/12/05 03:03:00;;;;;;;5.88;4.15;;;;;;;2.85;44.12;95266.53;5010840;28;20469;-68
2022/12/05 03:05:54;;;;;;;5.07;3.85;;;;;;;2.80;44.81;95263.50;5007483;28;20102;-71
2022/12/05 03:08:34;;;;;;;5.07;3.42;;;;;;;2.58;44.16;95262.75;5005835;28;20155;-69
2022/12/05 03:11:00;;;;;;;4.80;3.35;;;;;;;2.73;44.79;95268.44;5022110;28;20109;-71
2022/12/05 03:13:27;;;;;;;5.03;3.40;;;;;;;2.85;45.23;95271.78;5023003;28;20101;-71
2022/12/05 03:15:58;;;;;;;4.00;3.10;;;;;;;2.76;44.70;95270.81;5019890;28;20081;-69
2022/12/05 03:18:27;;;;;;;4.05;3.08;;;;;;;2.79;45.16;95267.06;5023288;28;20125;-69
2022/12/05 03:20:58;;;;;;;3.70;2.90;;;;;;;2.89;44.74;95267.06;5002248;28;20086;-69
2022/12/05 03:23:25;;;;;;;4.03;3.17;;;;;;;2.91;45.40;95262.50;5015841;28;20106;-69
2022/12/05 03:26:11;;;;;;;3.75;3.00;;;;;;;2.97;44.04;95272.50;5021322;28;20098;-69
2022/12/05 03:28:49;;;;;;;3.97;2.92;;;;;;;2.95;44.14;95281.47;5006582;28;20082;-70
2022/12/05 03:31:14;;;;;;;4.88;3.13;;;;;;;2.90;44.74;95281.91;5020817;28;20138;-70
2022/12/05 03:33:41;;;;;;;3.35;2.80;;;;;;;2.84;44.73;95274.53;5018601;28;20637;-71
2022/12/05 03:36:27;;;;;;;5.03;3.25;;;;;;;2.81;45.00;95286.19;5008764;28;20129;-70
2022/12/05 03:39:07;;;;;;;3.90;2.92;;;;;;;2.93;45.23;95280.78;5010443;28;20109;-70
2022/12/05 03:41:58;;;;;;;5.13;3.58;;;;;;;2.97;44.59;95283.00;5007489;28;20132;-70
2022/12/05 03:44:53;;;;;;;5.63;3.40;;;;;;;2.90;44.88;95281.91;4994093;28;20078;-69
2022/12/05 03:47:22;;;;;;;6.50;3.67;;;;;;;2.98;44.53;95271.50;5010342;28;20205;-70
2022/12/05 03:49:54;;;;;;;5.38;3.80;;;;;;;3.12;43.60;95275.53;5008579;28;20497;-68
2022/12/05 03:52:28;;;;;;;5.07;3.80;;;;;;;3.14;43.17;95278.00;4996101;28;20081;-70
2022/12/05 03:54:55;;;;;;;8.75;4.15;;;;;;;2.78;44.00;95279.41;4993454;28;20152;-68
2022/12/05 03:57:23;;;;;;;5.63;3.85;;;;;;;2.44;45.10;95282.38;5009770;28;20583;-68
2022/12/05 03:59:50;;;;;;;4.97;3.75;;;;;;;2.51;44.60;95277.41;4993825;28;20692;-69
2022/12/05 04:02:30;;;;;;;6.00;4.20;;;;;;;2.57;45.47;95282.13;5023180;28;20842;-71
2022/12/05 04:05:12;;;;;;;7.20;4.45;;;;;;;2.54;45.00;95279.78;5041779;28;20081;-69
2022/12/05 04:07:38;;;;;;;4.75;3.75;;;;;;;2.61;44.80;95283.53;5040630;28;20105;-69
2022/12/05 04:10:09;;;;;;;6.00;3.88;;;;;;;2.58;44.50;95288.25;5022692;28;20105;-68
2022/12/05 04:12:34;;;;;;;4.57;3.60;;;;;;;2.70;45.26;95289.78;5023288;28;20314;-70
2022/12/05 04:15:03;;;;;;;6.22;4.10;;;;;;;2.85;45.29;95289.34;5039881;28;20331;-68
2022/12/05 04:17:36;;;;;;;6.28;4.13;;;;;;;2.82;44.02;95290.47;5024358;28;20604;-70
2022/12/05 04:23:01;;;;;;;4.82;3.80;;;;;;;2.44;46.05;95294.69;5039485;28;20115;-69
2022/12/05 04:25:31;;;;;;;4.97;3.90;;;;;;;2.52;45.67;95295.69;5023312;28;20081;-67
2022/12/05 04:28:03;;;;;;;7.13;4.40;;;;;;;2.74;45.06;95293.78;5024667;28;20541;-70
2022/12/05 04:30:39;;;;;;;5.63;4.35;;;;;;;2.83;44.70;95297.41;5041502;28;20404;-70
2022/12/05 04:33:17;;;;;;;6.80;4.80;;;;;;;2.93;44.25;95299.19;5038734;28;20219;-70
2022/12/05 04:35:50;;;;;;;7.13;4.55;;;;;;;2.82;43.56;95295.72;5039981;28;20117;-68
2022/12/05 04:38:29;;;;;;;5.45;4.18;;;;;;;2.62;44.13;95306.22;5030504;28;20132;-69
2022/12/05 04:41:00;;;;;;;4.90;3.85;;;;;;;2.74;44.35;95312.19;5020199;28;20135;-69
2022/12/05 04:43:26;;;;;;;5.10;3.63;;;;;;;2.77;44.75;95309.28;5019900;28;20172;-71
2022/12/05 04:45:51;;;;;;;6.20;4.43;;;;;;;2.44;44.97;95313.91;5018951;28;20097;-70
2022/12/05 04:48:17;;;;;;;5.80;4.15;;;;;;;2.17;45.42;95317.97;5017673;28;20082;-71
2022/12/05 04:50:44;;;;;;;4.53;3.60;;;;;;;2.07;45.97;95317.94;5019823;28;20350;-70
2022/12/05 04:53:09;;;;;;;5.50;3.90;;;;;;;2.28;46.03;95319.66;5003097;28;20132;-71
2022/12/05 04:55:35;;;;;;;5.20;3.83;;;;;;;2.60;45.52;95323.94;5003680;28;20173;-68
2022/12/05 04:58:07;;;;;;;5.82;3.80;;;;;;;2.74;45.12;95324.50;5019377;28;20097;-70
2022/12/05 05:00:37;;;;;;;4.72;3.47;;;;;;;2.74;44.89;95321.88;5023242;28;20073;-70
2022/12/05 05:03:14;;;;;;;;;;;;;;;2.61;44.59;95319.47;5008191;28;20154;-69
2022/12/05 05:05:40;;;;;;;4.30;3.13;;;;;;;2.59;45.08;95332.75;5005682;28;20020;-68
2022/12/05 05:08:17;;;;;;;4.82;3.58;;;;;;;2.54;45.39;95327.09;5007768;28;20514;-69
2022/12/05 05:10:51;;;;;;;4.75;3.30;;;;;;;2.68;45.54;95340.81;5009660;28;20105;-70
2022/12/05 05:13:16;;;;;;;5.78;4.00;;;;;;;2.98;44.49;95328.53;4990238;28;20098;-71
2022/12/05 05:15:42;;;;;;;24.90;5.53;;;;;;;2.44;44.88;95326.22;5007282;28;20089;-68
2022/12/05 05:18:08;;;;;;;8.18;4.55;;;;;;;2.41;45.41;95329.13;5009035;28;20571;-70
2022/12/05 05:20:34;;;;;;;9.27;4.63;;;;;;;2.55;45.54;95333.19;5011632;28;20089;-68
2022/12/05 05:22:59;;;;;;;36.25;4.95;;;;;;;2.47;45.37;95323.31;5010029;28;20110;-68
2022/12/05 05:25:25;;;;;;;8.95;4.50;;;;;;;2.60;44.90;95334.44;5009567;28;20086;-71
2022/12/05 05:27:51;;;;;;;6.18;4.13;;;;;;;2.32;45.20;95336.88;5009074;28;20117;-71
2022/12/05 05:30:18;;;;;;;4.95;3.78;;;;;;;2.38;45.29;95336.31;5018111;28;20180;-69
2022/12/05 05:32:43;;;;;;;5.90;4.53;;;;;;;2.59;44.91;95342.47;5009016;28;20341;-71
2022/12/05 05:35:09;;;;;;;7.90;4.38;;;;;;;2.77;44.17;95337.38;5005611;28;20677;-69
2022/12/05 05:37:34;;;;;;;8.50;4.88;;;;;;;2.82;44.35;95337.78;4985989;28;20106;-71
2022/12/05 05:40:00;;;;;;;13.27;7.88;;;;;;;2.47;46.73;95339.94;5008095;28;20093;-68
2022/12/05 05:42:25;;;;;;;13.73;9.95;;;;;;;2.17;50.65;95346.06;5006220;28;20110;-70
2022/12/05 05:44:50;;;;;;;13.02;9.10;;;;;;;2.22;52.43;95341.25;5012095;28;20140;-71
2022/12/05 05:47:16;;;;;;;12.73;8.30;;;;;;;2.33;52.06;95343.78;5011312;28;20133;-69
2022/12/05 05:49:41;;;;;;;13.05;9.20;;;;;;;2.42;52.08;95338.69;5010736;28;20746;-71
2022/12/05 05:52:07;;;;;;;11.27;7.88;;;;;;;2.51;51.04;95340.50;5014026;28;20101;-69
2022/12/05 05:54:32;;;;;;;27.35;8.13;;;;;;;2.33;51.23;95345.56;5012315;28;20102;-69
2022/12/05 05:56:57;;;;;;;13.68;8.40;;;;;;;2.39;52.47;95353.72;5012202;28;20090;-71
2022/12/05 05:59:23;;;;;;;12.57;6.65;;;;;;;2.46;50.03;95353.22;5011417;28;20659;-68
2022/12/05 06:01:48;;;;;;;12.35;8.43;;;;;;;2.44;51.96;95352.50;5003390;28;20122;-71
2022/12/05 06:04:13;;;;;;;13.98;9.52;;;;;;;2.52;52.31;95352.69;5014220;28;20517;-69
2022/12/05 06:06:39;;;;;;;18.63;9.05;;;;;;;2.61;50.71;95346.63;5013911;28;20113;-69
2022/12/05 06:09:08;;;;;;;12.85;8.00;;;;;;;2.44;50.66;95355.13;5013452;28;20082;-72
2022/12/05 06:11:33;;;;;;;16.50;9.75;;;;;;;2.49;51.58;95353.75;5019043;28;20583;-71
2022/12/05 06:14:01;;;;;;;14.18;8.05;;;;;;;2.50;50.03;95350.19;5017864;28;20098;-71
2022/12/05 06:16:27;;;;;;;18.60;12.67;;;;;;;2.44;52.88;95355.97;5009333;28;20427;-68
2022/12/05 06:18:52;;;;;;;64.28;7.30;;;;;;;2.25;46.75;95354.13;5007258;28;20557;-70
2022/12/05 06:21:18;;;;;;;23.33;12.68;;;;;;;2.39;53.30;95358.97;5010459;28;20086;-68
2022/12/05 06:23:43;;;;;;;23.83;10.48;;;;;;;2.55;51.16;95357.66;5012071;28;20113;-66
2022/12/05 06:26:10;;;;;;;18.75;12.82;;;;;;;2.74;52.12;95356.88;5011911;28;20102;-68
2022/12/05 06:28:38;;;;;;;23.13;12.45;;;;;;;2.87;51.64;95361.91;5010574;28;20492;-70
2022/12/05 06:31:17;;;;;;;24.15;13.00;;;;;;;2.85;50.72;95360.34;5018459;28;20155;-70
2022/12/05 06:33:43;;;;;;;60.30;9.80;;;;;;;2.89;47.25;95359.94;5017323;28;20094;-69
2022/12/05 06:36:10;;;;;;;20.33;9.60;;;;;;;2.95;49.97;95355.94;5014919;28;20151;-70
2022/12/05 06:38:36;;;;;;;25.85;9.60;;;;;;;3.10;49.57;95358.19;5011008;28;20614;-68
2022/12/05 06:41:06;;;;;;;59.05;7.45;;;;;;;3.01;47.37;95362.47;5007841;28;20211;-70
2022/12/05 06:43:31;;;;;;;35.42;8.13;;;;;;;2.89;47.25;95369.63;5007458;28;20256;-68
2022/12/05 06:45:57;;;;;;;15.20;8.18;;;;;;;2.81;49.23;95370.31;5006854;28;20510;-68
2022/12/05 06:48:22;;;;;;;26.58;8.00;;;;;;;2.92;48.94;95379.88;5013111;28;20086;-70
2022/12/05 06:50:51;;;;;;;18.75;7.82;;;;;;;3.06;48.20;95380.47;5012918;28;20478;-71
2022/12/05 06:53:17;;;;;;;13.70;7.68;;;;;;;3.12;48.89;95378.13;5009168;28;20077;-70
2022/12/05 06:55:42;;;;;;;13.30;6.78;;;;;;;3.33;46.95;95379.78;5009988;28;20593;-70
2022/12/05 06:58:08;;;;;;;16.42;6.88;;;;;;;3.35;46.05;95384.91;5013668;28;20114;-68
2022/12/05 07:03:17;;;;;;;17.33;6.82;;;;;;;3.25;47.45;95384.91;5015019;28;20108;-70
2022/12/05 07:05:42;;;;;;;10.52;6.80;;;;;;;3.23;47.61;95377.16;5017606;28;20101;-70
2022/12/05 07:08:08;;;;;;;21.27;7.10;;;;;;;3.20;47.24;95389.75;5015668;28;20490;-68
2022/12/05 07:10:33;;;;;;;23.05;6.65;;;;;;;3.07;47.38;95396.13;5011526;28;20106;-69
2022/12/05 07:12:58;;;;;;;22.15;6.57;;;;;;;3.02;48.62;95395.69;5013945;28;20102;-71
2022/12/05 07:15:24;;;;;;;28.52;7.57;;;;;;;3.15;47.48;95393.63;5017155;28;20462;-69
2022/12/05 07:17:49;;;;;;;13.25;6.97;;;;;;;3.20;48.38;95403.72;5015026;28;20113;-70
2022/12/05 07:20:16;;;;;;;12.13;7.50;;;;;;;3.25;48.15;95395.44;5012503;28;20136;-70
2022/12/05 07:22:42;;;;;;;16.42;7.22;;;;;;;3.25;48.49;95395.44;5012683;28;20533;-68
2022/12/05 07:25:08;;;;;;;16.60;8.15;;;;;;;3.29;47.67;95391.56;5012778;28;20086;-69
2022/12/05 07:27:33;;;;;;;18.90;8.07;;;;;;;3.27;48.13;95407.47;5010594;28;20188;-71
2022/12/05 07:29:58;;;;;;;39.97;7.30;;;;;;;3.09;47.98;95412.59;5020217;28;20594;-69
2022/12/05 07:32:24;;;;;;;17.08;10.98;;;;;;;3.11;49.52;95410.66;5040639;28;20073;-68
2022/12/05 07:34:49;;;;;;;109.68;9.65;;;;;;;2.38;46.40;95409.88;5023891;28;20109;-71
2022/12/05 07:37:15;;;;;;;28.50;13.05;;;;;;;1.94;50.96;95422.38;5021633;28;20110;-68
2022/12/05 07:39:40;;;;;;;37.10;14.95;;;;;;;2.36;51.34;95422.34;5041834;28;20450;-70
2022/12/05 07:42:05;;;;;;;31.10;12.27;;;;;;;2.60;49.14;95418.56;5038620;28;20109;-71
2022/12/05 07:44:31;;;;;;;184.30;8.95;;;;;;;1.92;47.06;95419.88;5040168;28;20315;-68
2022/12/05 07:46:57;;;;;;;217.43;7.88;;;;;;;1.44;47.46;95421.16;5039549;28;20128;-70
2022/12/05 07:49:22;;;;;;;86.30;7.57;;;;;;;1.57;48.79;95427.06;5039785;28;20124;-68
2022/12/05 07:51:47;;;;;;;31.02;11.85;;;;;;;2.06;50.97;95429.22;5041136;28;20070;-71
2022/12/05 07:54:13;;;;;;;50.25;13.52;;;;;;;2.29;50.68;95429.06;5041501;28;20581;-69
2022/12/05 07:56:38;;;;;;;25.65;14.82;;;;;;;2.50;51.05;95429.03;5038768;28;20078;-71
2022/12/05 07:59:03;;;;;;;31.90;17.50;;;;;;;2.62;51.35;95426.31;5037400;28;20494;-69
2022/12/05 08:01:29;;;;;;;34.17;16.58;;;;;;;2.75;50.74;95428.69;5041514;28;20105;-69
2022/12/05 08:03:56;;;;;;;32.00;17.00;;;;;;;3.05;50.09;95434.88;5038044;28;20081;-71
2022/12/05 08:06:23;;;;;;;31.52;12.35;;;;;;;3.19;46.61;95433.66;5037060;28;20090;-68
2022/12/05 08:08:48;;;;;;;92.60;8.90;;;;;;;3.02;47.81;95429.88;5037934;28;20085;-70
2022/12/05 08:11:21;;;;;;;38.90;18.75;;;;;;;2.53;50.79;95433.19;5039051;28;20147;-70
2022/12/05 08:13:47;;;;;;;35.10;5.43;;;;;;;2.87;47.49;95438.16;5037278;28;20121;-68
2022/12/05 08:16:14;;;;;;;141.80;7.57;;;;;;;0.79;50.11;95448.97;5037006;28;20716;-70
2022/12/05 08:18:40;;;;;;;77.53;11.52;;;;;;;1.32;51.37;95442.19;5036189;28;20113;-71
2022/12/05 08:21:07;;;;;;;35.78;23.35;;;;;;;2.32;52.16;95441.13;5035853;28;20089;-69
2022/12/05 08:23:33;;;;;;;38.78;24.45;;;;;;;2.75;51.35;95437.41;5038031;28;20121;-71
2022/12/05 08:26:12;;;;;;;43.92;23.55;;;;;;;3.09;50.10;95438.88;5037970;28;20795;-71
2022/12/05 08:28:38;;;;;;;39.65;24.95;;;;;;;3.37;49.31;95444.31;5036804;28;20066;-69
2022/12/05 08:31:14;;;;;;;37.10;25.02;;;;;;;3.59;49.47;95439.81;5037973;28;20121;-70
2022/12/05 08:33:39;;;;;;;45.17;29.70;;;;;;;3.72;48.81;95433.44;5033831;28;20948;-71
2022/12/05 08:36:07;;;;;;;32.22;20.40;;;;;;;3.86;46.54;95433.00;5040227;28;20220;-69
2022/12/05 08:38:32;;;;;;;34.38;24.00;;;;;;;3.79;47.77;95442.44;5035937;28;20124;-71
2022/12/05 08:41:05;;;;;;;43.22;28.88;;;;;;;3.85;47.32;95441.06;5037998;28;20836;-71
2022/12/05 08:43:30;;;;;;;41.78;30.40;;;;;;;4.13;47.32;95449.06;5038457;28;20590;-71
2022/12/05 08:45:56;;;;;;;38.97;27.75;;;;;;;4.04;46.64;95454.19;5033509;28;20306;-70
2022/12/05 08:48:22;;;;;;;30.38;21.58;;;;;;;4.30;46.09;95458.88;5037315;28;20085;-70
2022/12/05 08:50:47;;;;;;;28.52;20.08;;;;;;;4.09;45.33;95468.75;5037141;28;20415;-71
2022/12/05 08:53:13;;;;;;;29.00;19.45;;;;;;;3.80;44.66;95468.63;5039816;28;20081;-70
2022/12/05 08:55:38;;;;;;;46.10;33.58;;;;;;;3.69;48.23;95479.31;5039014;28;20116;-71
2022/12/05 08:58:04;;;;;;;27.38;16.80;;;;;;;3.69;45.41;95468.78;5039559;28;20105;-69
2022/12/05 09:00:30;;;;;;;37.85;28.90;;;;;;;3.66;47.15;95472.53;5038420;28;20585;-71
2022/12/05 09:02:56;;;;;;;16.17;10.95;;;;;;;3.88;43.20;95473.19;5032085;28;20125;-72
2022/12/05 09:05:21;;;;;;;29.33;21.73;;;;;;;3.68;45.29;95475.84;5038095;28;20085;-71
2022/12/05 09:07:47;;;;;;;11.35;7.60;;;;;;;3.54;42.90;95473.63;5039794;28;20089;-70
2022/12/05 09:10:12;;;;;;;16.60;11.10;;;;;;;3.72;43.91;95475.56;5039350;28;20139;-72
2022/12/05 09:12:38;;;;;;;18.98;13.48;;;;;;;3.89;42.81;95474.88;5038821;28;20399;-69
2022/12/05 09:15:05;;;;;;;14.45;9.60;;;;;;;4.05;41.42;95471.66;5039228;28;20178;-71
2022/12/05 09:17:30;;;;;;;16.58;11.88;;;;;;;3.59;42.75;95484.56;5037347;28;20295;-71
2022/12/05 09:19:56;;;;;;;21.70;15.25;;;;;;;3.54;45.53;95486.78;5040395;28;20377;-70
2022/12/05 09:22:21;;;;;;;25.00;17.33;;;;;;;3.72;44.95;95481.66;5038199;28;20110;-71
2022/12/05 09:24:47;;;;;;;11.10;7.15;;;;;;;3.87;42.31;95481.22;5039844;28;20081;-70
2022/12/05 09:27:13;;;;;;;10.50;7.50;;;;;;;3.91;42.12;95483.47;5037609;28;20447;-69
2022/12/05 09:29:38;;;;;;;36.25;25.67;;;;;;;3.62;44.89;95486.94;5040468;28;20101;-70
2022/12/05 09:32:04;;;;;;;6.78;4.53;;;;;;;3.90;41.42;95494.97;5038526;28;20084;-70
2022/12/05 09:34:29;;;;;;;12.93;8.70;;;;;;;3.62;42.54;95494.84;5038954;28;20172;-70
2022/12/05 09:36:56;;;;;;;35.88;24.85;;;;;;;2.93;47.49;95492.03;5038922;28;20139;-70
2022/12/05 09:39:22;;;;;;;14.15;9.98;;;;;;;2.71;45.70;95498.28;5040615;28;20109;-69
2022/12/05 09:42:03;;;;;;;28.27;21.58;;;;;;;2.89;47.94;95501.13;5033473;28;20113;-70
2022/12/05 09:44:49;;;;;;;25.77;19.23;;;;;;;3.65;44.71;95499.84;5038745;28;20081;-70
2022/12/05 09:47:26;;;;;;;6.28;4.20;;;;;;;4.30;42.65;95495.78;5037786;28;20147;-69
2022/12/05 09:49:55;;;;;;;12.10;7.68;;;;;;;4.08;42.14;95496.88;5038190;28;20112;-69
2022/12/05 09:52:29;;;;;;;7.68;5.35;;;;;;;3.83;42.49;95499.13;5030638;28;20449;-69
2022/12/05 09:54:54;;;;;;;17.48;11.90;;;;;;;3.78;42.68;95504.00;5023883;28;20113;-70
2022/12/05 09:57:26;;;;;;;13.10;8.10;;;;;;;3.51;43.60;95508.13;5019988;28;20089;-69
2022/12/05 09:59:51;;;;;;;36.85;26.20;;;;;;;3.62;44.04;95513.25;5022667;28;20142;-71
2022/12/05 10:02:49;;;;;;;15.45;11.95;;;;;;;3.51;46.37;95511.56;5037585;28;20109;-70
2022/12/05 10:05:31;;;;;;;14.20;9.37;;;;;;;3.91;42.49;95495.81;5026290;28;20143;-68
2022/12/05 10:08:15;;;;;;;21.42;14.45;;;;;;;3.90;42.37;95500.25;5036322;28;20077;-69
2022/12/05 10:10:45;;;;;;;8.13;5.50;;;;;;;3.96;42.30;95493.59;5037242;28;20097;-69
2022/12/05 10:13:32;;;;;;;5.82;4.20;;;;;;;3.62;42.17;95486.94;5034359;28;20093;-69
2022/12/05 10:16:06;;;;;;;25.70;17.13;;;;;;;3.21;44.23;95486.13;5037889;28;20365;-69
2022/12/05 10:18:39;;;;;;;9.65;6.97;;;;;;;3.27;42.54;95480.34;5038661;28;20305;-68
2022/12/05 10:21:08;;;;;;;4.55;3.47;;;;;;;2.43;44.88;95487.50;5032819;28;20089;-70
2022/12/05 10:23:58;;;;;;;33.17;22.42;;;;;;;3.14;46.47;95488.47;5033157;28;20140;-69
2022/12/05 10:26:35;;;;;;;26.58;17.13;;;;;;;3.39;44.09;95487.16;5033760;28;20121;-69
2022/12/05 10:29:16;;;;;;;11.27;6.95;;;;;;;2.72;44.80;95489.44;5021997;28;20073;-69
2022/12/05 10:31:41;;;;;;;28.60;20.25;;;;;;;2.89;47.31;95496.69;5018850;28;20568;-70
2022/12/05 10:34:25;;;;;;;4.82;3.63;;;;;;;2.76;44.46;95490.84;5000036;28;20091;-69
2022/12/05 10:36:59;;;;;;;3.70;2.70;;;;;;;2.53;44.43;95483.13;5014412;28;20117;-69
2022/12/05 10:39:25;;;;;;;13.45;8.88;;;;;;;2.36;45.97;95480.16;4990860;28;20203;-69
2022/12/05 10:41:51;;;;;;;9.55;5.95;;;;;;;1.51;46.88;95490.53;5018223;28;20105;-69
2022/12/05 10:44:16;;;;;;;5.22;3.65;;;;;;;0.37;50.70;95494.09;5019009;28;20523;-69
2022/12/05 10:46:42;;;;;;;5.10;3.63;;;;;;;1.69;46.97;95497.91;5016564;28;20102;-68
2022/12/05 10:49:10;;;;;;;6.85;4.90;;;;;;;1.94;46.54;95499.34;5018784;28;20090;-69
2022/12/05 10:51:36;;;;;;;9.02;6.30;;;;;;;1.71;47.09;95503.88;5020741;28;20082;-68
2022/12/05 10:54:01;;;;;;;3.88;3.20;;;;;;;1.61;47.76;95499.34;5004012;28;20532;-69
2022/12/05 10:56:41;;;;;;;10.35;6.97;;;;;;;1.55;48.65;95502.50;5025031;28;20073;-70
2022/12/05 10:59:08;;;;;;;9.50;6.32;;;;;;;0.62;50.37;95500.09;5014689;28;20102;-69
2022/12/05 11:01:34;;;;;;;7.18;4.53;;;;;;;1.37;48.24;95497.72;5008785;28;20160;-69
2022/12/05 11:04:00;;;;;;;16.85;12.02;;;;;;;1.55;49.64;95499.88;5011404;28;20284;-69
2022/12/05 11:06:27;;;;;;;56.75;42.10;;;;;;;1.45;54.81;95501.53;5002201;28;20168;-69
2022/12/05 11:08:57;;;;;;;23.20;16.73;;;;;;;1.29;51.43;95500.13;5011129;28;20156;-68
2022/12/05 11:11:32;;;;;;;6.10;3.97;;;;;;;2.09;47.24;95497.25;5007916;28;20109;-69
2022/12/05 11:13:59;;;;;;;33.20;20.60;;;;;;;1.91;48.98;95493.53;5009414;28;20196;-69
2022/12/05 11:16:32;;;;;;;41.75;24.40;;;;;;;2.10;48.16;95493.66;5012893;28;20082;-69
2022/12/05 11:19:31;;;;;;;23.92;15.70;;;;;;;2.18;48.25;95497.44;5011171;28;20106;-69
2022/12/05 11:21:57;;;;;;;19.35;13.75;;;;;;;2.26;48.21;95495.00;5011241;28;20183;-69
2022/12/05 11:24:36;;;;;;;8.02;5.88;;;;;;;-0.02;51.71;95504.00;5012265;28;20116;-69
2022/12/05 11:27:16;;;;;;;;;;;;;;;1.45;48.36;95504.16;5012400;28;20193;-69
2022/12/05 11:30:11;;;;;;;7.10;4.63;;;;;;;1.49;47.77;95498.53;5009844;28;19981;-69
2022/12/05 11:32:37;;;;;;;10.43;6.25;;;;;;;1.42;48.15;95501.75;5010065;28;20124;-69
2022/12/05 11:35:08;;;;;;;7.68;4.00;;;;;;;0.83;49.26;95502.00;5015493;28;20106;-69
2022/12/05 11:38:01;;;;;;;9.73;7.20;;;;;;;1.59;47.98;95500.44;5018876;28;20121;-69
2022/12/05 11:40:48;;;;;;;12.73;8.02;;;;;;;1.72;47.20;95495.88;5021795;28;20084;-69
2022/12/05 11:43:32;;;;;;;12.13;7.63;;;;;;;1.94;47.91;95486.22;5021308;28;20113;-69
2022/12/05 11:46:34;;;;;;;8.23;5.35;;;;;;;1.89;47.74;95483.16;5020509;28;20403;-69
2022/12/05 11:49:35;;;;;;;34.03;24.73;;;;;;;1.92;47.81;95482.06;5020117;28;20457;-69
2022/12/05 11:52:33;;;;;;;18.50;10.95;;;;;;;2.04;47.79;95483.66;5031168;28;20101;-69